createdAt,value
2019-02-26T00:00:32.683Z,93.4
2019-02-26T00:01:33.448Z,93.0
2019-02-26T00:02:34.165Z,93.5
2019-02-26T00:03:35.436Z,92.2
2019-02-26T00:04:36.918Z,91.1
2019-02-26T00:05:36.314Z,90.5
2019-02-26T00:06:37.019Z,90.3
2019-02-26T00:07:37.726Z,90.7
2019-02-26T00:08:38.452Z,90.9
2019-02-26T00:09:39.429Z,91.4
2019-02-26T00:10:40.122Z,91.3
2019-02-26T00:11:40.839Z,91.4
2019-02-26T00:12:41.547Z,91.1
2019-02-26T00:13:42.588Z,90.8
2019-02-26T00:14:45.310Z,90.9
2019-02-26T00:15:45.926Z,90.5
2019-02-26T00:16:46.653Z,91.3
2019-02-26T00:17:46.421Z,90.9
2019-02-26T00:18:46.144Z,89.8
2019-02-26T00:19:46.860Z,90.8
2019-02-26T00:20:47.815Z,91.5
2019-02-26T00:21:50.092Z,92.1
2019-02-26T00:22:49.792Z,90.9
2019-02-26T00:23:51.481Z,90.8
2019-02-26T00:24:51.659Z,89.8
2019-02-26T00:25:52.631Z,88.4
2019-02-26T00:26:53.333Z,88.4
2019-02-26T00:27:55.876Z,88.3
2019-02-26T00:28:54.785Z,87.3
2019-02-26T00:29:55.767Z,87.5
2019-02-26T00:30:57.207Z,87.9
2019-02-26T00:31:57.789Z,86.7
2019-02-26T00:33:00.115Z,87.4
2019-02-26T00:33:58.765Z,88.0
2019-02-26T00:35:00.038Z,88.2
2019-02-26T00:36:00.206Z,88.4
2019-02-26T00:37:01.804Z,88.2
2019-02-26T00:38:01.737Z,88.8
2019-02-26T00:39:03.449Z,88.4
2019-02-26T00:40:03.157Z,86.9
2019-02-26T00:41:05.604Z,86.4
2019-02-26T00:42:05.159Z,86.5
2019-02-26T00:43:06.577Z,87.1
2019-02-26T00:44:06.522Z,86.6
2019-02-26T00:45:07.889Z,87.1
2019-02-26T00:46:08.566Z,86.4
2019-02-26T00:47:08.960Z,86.6
2019-02-26T00:48:08.911Z,85.6
2019-02-26T00:49:09.621Z,83.8
2019-02-26T00:50:12.021Z,84.2
2019-02-26T00:51:11.327Z,83.6
2019-02-26T00:52:13.301Z,83.7
2019-02-26T00:53:12.749Z,83.4
2019-02-26T00:54:13.458Z,83.5
2019-02-26T00:55:14.181Z,82.7
2019-02-26T00:56:14.882Z,83.4
2019-02-26T00:57:15.593Z,84.3
2019-02-26T00:58:16.346Z,84.5
2019-02-26T00:59:17.051Z,85.0
2019-02-26T01:00:18.030Z,84.5
2019-02-26T01:01:19.924Z,85.3
2019-02-26T01:02:19.457Z,84.6
2019-02-26T01:03:20.163Z,84.5
2019-02-26T01:04:20.886Z,84.3
2019-02-26T01:05:21.611Z,83.9
2019-02-26T01:06:23.049Z,83.7
2019-02-26T01:07:23.843Z,82.9
2019-02-26T01:08:23.737Z,82.9
2019-02-26T01:09:25.182Z,83.0
2019-02-26T01:10:25.167Z,83.0
2019-02-26T01:11:27.588Z,82.1
2019-02-26T01:12:26.605Z,82.5
2019-02-26T01:13:28.448Z,81.3
2019-02-26T01:14:28.076Z,82.4
2019-02-26T01:15:28.776Z,82.7
2019-02-26T01:16:29.491Z,82.3
2019-02-26T01:17:31.171Z,82.5
2019-02-26T01:18:31.278Z,81.7
2019-02-26T01:19:32.520Z,80.6
2019-02-26T01:20:32.695Z,80.0
2019-02-26T01:21:35.402Z,79.3
2019-02-26T01:22:35.427Z,79.5
2019-02-26T01:23:35.085Z,79.0
2019-02-26T01:24:35.794Z,80.5
2019-02-26T01:25:38.742Z,81.5
2019-02-26T01:26:37.214Z,82.7
2019-02-26T01:27:37.927Z,82.6
2019-02-26T01:28:39.632Z,83.7
2019-02-26T01:29:39.350Z,84.2
2019-02-26T01:30:40.060Z,84.0
2019-02-26T01:31:40.772Z,82.4
2019-02-26T01:32:41.485Z,82.2
2019-02-26T01:33:42.199Z,81.9
2019-02-26T01:34:44.899Z,82.3
2019-02-26T01:35:44.030Z,82.0
2019-02-26T01:36:45.612Z,81.4
2019-02-26T01:37:45.458Z,80.9
2019-02-26T01:38:48.238Z,81.6
2019-02-26T01:39:47.291Z,82.6
2019-02-26T01:40:50.734Z,82.0
2019-02-26T01:41:50.388Z,81.0
2019-02-26T01:42:52.217Z,80.6
2019-02-26T01:43:49.745Z,80.5
2019-02-26T01:44:50.448Z,80.6
2019-02-26T01:45:53.117Z,80.0
2019-02-26T01:46:53.420Z,80.0
2019-02-26T01:47:52.782Z,80.7
2019-02-26T01:48:55.060Z,81.8
2019-02-26T01:49:54.038Z,82.5
2019-02-26T01:50:56.812Z,82.9
2019-02-26T01:51:55.515Z,82.3
2019-02-26T01:52:56.817Z,80.7
2019-02-26T01:53:56.943Z,81.8
2019-02-26T01:54:59.736Z,84.4
2019-02-26T01:55:58.373Z,85.1
2019-02-26T01:56:59.076Z,86.0
2019-02-26T01:57:59.794Z,87.4
2019-02-26T01:59:02.353Z,88.1
2019-02-26T02:00:01.231Z,88.2
2019-02-26T02:01:01.950Z,88.4
2019-02-26T02:02:02.663Z,88.3
2019-02-26T02:03:03.391Z,88.2
2019-02-26T02:04:04.095Z,88.0
2019-02-26T02:05:06.706Z,85.2
2019-02-26T02:06:06.240Z,84.1
2019-02-26T02:07:06.278Z,84.3
2019-02-26T02:08:09.057Z,85.4
2019-02-26T02:09:11.276Z,86.6
2019-02-26T02:10:08.416Z,86.6
2019-02-26T02:11:09.371Z,86.7
2019-02-26T02:12:11.021Z,86.6
2019-02-26T02:13:11.431Z,82.8
2019-02-26T02:14:12.729Z,81.8
2019-02-26T02:15:12.363Z,82.0
2019-02-26T02:16:12.713Z,84.9
2019-02-26T02:17:13.599Z,85.6
2019-02-26T02:18:14.141Z,85.6
2019-02-26T02:19:18.035Z,84.4
2019-02-26T02:20:18.089Z,84.9
2019-02-26T02:21:16.296Z,83.3
2019-02-26T02:22:18.974Z,82.3
2019-02-26T02:23:19.383Z,81.4
2019-02-26T02:24:20.570Z,81.9
2019-02-26T02:25:19.148Z,80.8
2019-02-26T02:26:19.865Z,80.4
2019-02-26T02:27:22.585Z,79.9
2019-02-26T02:28:22.174Z,79.1
2019-02-26T02:29:23.653Z,78.7
2019-02-26T02:30:27.316Z,78.3
2019-02-26T02:31:24.437Z,79.2
2019-02-26T02:32:26.096Z,78.0
2019-02-26T02:33:26.754Z,79.1
2019-02-26T02:34:27.025Z,79.4
2019-02-26T02:35:26.315Z,79.1
2019-02-26T02:36:27.050Z,79.3
2019-02-26T02:37:29.919Z,79.1
2019-02-26T02:38:28.462Z,78.0
2019-02-26T02:39:29.325Z,76.5
2019-02-26T02:40:29.899Z,74.1
2019-02-26T02:41:30.654Z,73.7
2019-02-26T02:42:31.379Z,74.5
2019-02-26T02:43:32.080Z,74.7
2019-02-26T02:44:33.042Z,75.4
2019-02-26T02:45:33.744Z,76.7
2019-02-26T02:46:36.545Z,76.2
2019-02-26T02:47:36.992Z,76.6
2019-02-26T02:48:36.005Z,76.2
2019-02-26T02:49:39.379Z,76.0
2019-02-26T02:50:37.435Z,75.2
2019-02-26T02:51:39.528Z,75.2
2019-02-26T02:52:38.880Z,74.8
2019-02-26T02:53:39.589Z,73.7
2019-02-26T02:54:41.218Z,72.2
2019-02-26T02:55:43.285Z,70.8
2019-02-26T02:56:42.422Z,69.7
2019-02-26T02:57:42.439Z,70.1
2019-02-26T02:58:44.234Z,71.6
2019-02-26T02:59:43.855Z,73.3
2019-02-26T03:00:46.182Z,73.7
2019-02-26T03:01:48.359Z,73.8
2019-02-26T03:02:49.415Z,73.8
2019-02-26T03:03:47.736Z,74.0
2019-02-26T03:04:47.472Z,75.0
2019-02-26T03:05:48.176Z,76.1
2019-02-26T03:06:50.159Z,76.9
2019-02-26T03:07:51.525Z,77.7
2019-02-26T03:08:51.094Z,79.0
2019-02-26T03:09:51.077Z,78.4
2019-02-26T03:10:51.784Z,79.2
2019-02-26T03:11:53.066Z,79.0
2019-02-26T03:12:55.278Z,79.5
2019-02-26T03:13:54.173Z,79.4
2019-02-26T03:14:56.356Z,78.7
2019-02-26T03:15:56.628Z,78.5
2019-02-26T03:16:56.312Z,77.8
2019-02-26T03:17:57.038Z,77.4
2019-02-26T03:18:57.731Z,76.2
2019-02-26T03:20:00.753Z,76.0
2019-02-26T03:21:01.446Z,75.7
2019-02-26T03:21:59.888Z,74.8
2019-02-26T03:23:00.596Z,73.7
2019-02-26T03:24:03.511Z,73.3
2019-02-26T03:25:02.485Z,71.6
2019-02-26T03:26:02.834Z,70.8
2019-02-26T03:27:03.538Z,71.6
2019-02-26T03:28:04.248Z,70.6
2019-02-26T03:29:04.957Z,71.3
2019-02-26T03:30:05.664Z,71.0
2019-02-26T03:31:06.385Z,70.4
2019-02-26T03:32:07.123Z,70.5
2019-02-26T03:33:07.839Z,70.4
2019-02-26T03:34:13.979Z,69.5
2019-02-26T03:35:10.172Z,67.7
2019-02-26T03:36:11.202Z,68.0
2019-02-26T03:37:11.130Z,68.8
2019-02-26T03:38:11.394Z,70.0
2019-02-26T03:39:12.097Z,71.2
2019-02-26T03:40:12.807Z,72.3
2019-02-26T03:41:13.534Z,71.9
2019-02-26T03:42:16.292Z,71.6
2019-02-26T03:43:16.206Z,72.0
2019-02-26T03:44:15.687Z,71.7
2019-02-26T03:45:16.403Z,71.5
2019-02-26T03:46:17.105Z,70.9
2019-02-26T03:47:18.790Z,70.1
2019-02-26T03:48:20.042Z,70.1
2019-02-26T03:49:19.259Z,70.5
2019-02-26T03:50:19.976Z,70.7
2019-02-26T03:51:20.691Z,71.0
2019-02-26T03:52:21.451Z,72.8
2019-02-26T03:53:25.522Z,75.0
2019-02-26T03:54:22.894Z,76.7
2019-02-26T03:55:23.626Z,77.4
2019-02-26T03:56:24.333Z,77.8
2019-02-26T03:57:25.058Z,78.2
2019-02-26T03:58:25.770Z,77.8
2019-02-26T03:59:26.471Z,77.3
2019-02-26T04:00:27.188Z,77.5
2019-02-26T04:01:27.894Z,78.1
2019-02-26T04:02:28.598Z,77.3
2019-02-26T04:03:31.514Z,78.0
2019-02-26T04:04:31.187Z,78.0
2019-02-26T04:05:30.993Z,77.5
2019-02-26T04:06:33.405Z,77.8
2019-02-26T04:07:33.535Z,78.0
2019-02-26T04:08:33.091Z,78.0
2019-02-26T04:09:33.816Z,78.3
2019-02-26T04:10:34.553Z,78.2
2019-02-26T04:11:35.257Z,78.3
2019-02-26T04:12:39.279Z,79.0
2019-02-26T04:13:36.686Z,78.9
2019-02-26T04:14:37.408Z,79.2
2019-02-26T04:15:38.348Z,78.8
2019-02-26T04:16:41.132Z,78.4
2019-02-26T04:17:41.778Z,77.5
2019-02-26T04:18:40.228Z,77.3
2019-02-26T04:19:43.749Z,76.9
2019-02-26T04:20:44.248Z,77.7
2019-02-26T04:21:42.393Z,78.3
2019-02-26T04:22:47.043Z,78.2
2019-02-26T04:23:45.939Z,78.4
2019-02-26T04:24:44.525Z,78.9
2019-02-26T04:25:45.224Z,79.8
2019-02-26T04:26:45.934Z,78.3
2019-02-26T04:27:46.644Z,77.2
2019-02-26T04:28:47.645Z,77.8
2019-02-26T04:29:49.359Z,76.5
2019-02-26T04:30:50.263Z,74.9
2019-02-26T04:31:52.081Z,75.0
2019-02-26T04:32:50.499Z,74.5
2019-02-26T04:33:53.055Z,74.5
2019-02-26T04:34:53.961Z,74.2
2019-02-26T04:35:55.002Z,74.2
2019-02-26T04:36:53.337Z,74.0
2019-02-26T04:37:55.776Z,74.1
2019-02-26T04:38:55.674Z,72.2
2019-02-26T04:39:55.475Z,71.5
2019-02-26T04:41:00.227Z,71.0
2019-02-26T04:41:56.911Z,70.4
2019-02-26T04:42:59.346Z,68.9
2019-02-26T04:44:00.658Z,69.0
2019-02-26T04:45:02.244Z,67.4
2019-02-26T04:46:02.227Z,66.7
2019-02-26T04:47:03.530Z,66.0
2019-02-26T04:48:01.211Z,66.1
2019-02-26T04:49:01.929Z,64.9
2019-02-26T04:50:03.739Z,64.2
2019-02-26T04:51:03.359Z,62.1
2019-02-26T04:52:05.576Z,62.0
2019-02-26T04:53:06.141Z,62.0
2019-02-26T04:54:05.493Z,61.4
2019-02-26T04:55:06.285Z,60.9
2019-02-26T04:56:11.967Z,60.6
2019-02-26T04:57:07.629Z,60.7
2019-02-26T04:58:08.690Z,61.5
2019-02-26T04:59:09.784Z,62.5
2019-02-26T05:00:10.507Z,64.0
2019-02-26T05:01:12.809Z,63.8
2019-02-26T05:02:11.177Z,64.2
2019-02-26T05:03:14.883Z,64.3
2019-02-26T05:04:12.759Z,64.1
2019-02-26T05:05:13.468Z,64.2
2019-02-26T05:06:14.167Z,63.9
2019-02-26T05:07:17.337Z,62.8
2019-02-26T05:08:17.646Z,62.7
2019-02-26T05:09:16.359Z,63.3
2019-02-26T05:10:17.119Z,64.1
2019-02-26T05:11:31.209Z,66.0
2019-02-26T05:12:18.500Z,65.3
2019-02-26T05:13:21.810Z,63.7
2019-02-26T05:14:23.417Z,61.8
2019-02-26T05:15:23.072Z,62.1
2019-02-26T05:16:21.670Z,61.5
2019-02-26T05:17:24.675Z,60.2
2019-02-26T05:18:23.860Z,60.5
2019-02-26T05:19:24.372Z,59.8
2019-02-26T05:20:24.522Z,57.7
2019-02-26T05:21:27.079Z,58.2
2019-02-26T05:22:28.334Z,58.2
2019-02-26T05:23:30.416Z,58.4
2019-02-26T05:24:27.405Z,57.3
2019-02-26T05:25:28.137Z,56.1
2019-02-26T05:26:30.201Z,55.3
2019-02-26T05:27:29.546Z,54.9
2019-02-26T05:28:35.648Z,54.4
2019-02-26T05:29:30.968Z,53.8
2019-02-26T05:30:31.777Z,53.5
2019-02-26T05:31:34.647Z,54.0
2019-02-26T05:32:35.358Z,54.7
2019-02-26T05:33:33.925Z,56.1
2019-02-26T05:34:34.634Z,56.6
2019-02-26T05:35:37.787Z,56.7
2019-02-26T05:36:37.245Z,55.2
2019-02-26T05:37:38.223Z,53.8
2019-02-26T05:38:37.794Z,54.1
2019-02-26T05:39:40.510Z,55.0
2019-02-26T05:40:40.388Z,55.8
2019-02-26T05:41:40.472Z,56.9
2019-02-26T05:42:40.556Z,57.3
2019-02-26T05:43:41.416Z,58.4
2019-02-26T05:44:42.230Z,59.1
2019-02-26T05:45:42.989Z,59.4
2019-02-26T05:46:43.711Z,60.9
2019-02-26T05:47:46.062Z,59.4
2019-02-26T05:48:45.833Z,58.9
2019-02-26T05:49:45.987Z,57.7
2019-02-26T05:50:46.597Z,56.9
2019-02-26T05:51:47.300Z,57.1
2019-02-26T05:52:50.444Z,57.8
2019-02-26T05:53:49.228Z,57.7
2019-02-26T05:54:49.977Z,58.2
2019-02-26T05:55:53.240Z,57.9
2019-02-26T05:56:51.451Z,56.3
2019-02-26T05:57:52.154Z,56.0
2019-02-26T05:58:52.876Z,56.0
2019-02-26T05:59:53.653Z,56.3
2019-02-26T06:00:54.477Z,57.7
2019-02-26T06:01:55.966Z,58.2
2019-02-26T06:02:55.918Z,59.2
2019-02-26T06:03:56.624Z,59.5
2019-02-26T06:04:57.332Z,59.0
2019-02-26T06:06:00.339Z,58.4
2019-02-26T06:06:59.896Z,57.7
2019-02-26T06:07:59.932Z,56.6
2019-02-26T06:09:02.889Z,55.4
2019-02-26T06:10:02.035Z,56.1
2019-02-26T06:11:02.741Z,55.0
2019-02-26T06:12:03.483Z,54.6
2019-02-26T06:13:04.998Z,54.2
2019-02-26T06:14:07.173Z,53.3
2019-02-26T06:15:07.950Z,53.1
2019-02-26T06:16:07.596Z,52.1
2019-02-26T06:17:07.764Z,52.4
2019-02-26T06:18:07.860Z,52.9
2019-02-26T06:19:10.834Z,52.1
2019-02-26T06:20:11.006Z,52.2
2019-02-26T06:21:10.009Z,51.2
2019-02-26T06:22:14.427Z,50.4
2019-02-26T06:23:11.432Z,50.4
2019-02-26T06:24:12.142Z,49.7
2019-02-26T06:25:18.587Z,49.5
2019-02-26T06:26:15.568Z,49.4
2019-02-26T06:27:16.571Z,49.2
2019-02-26T06:28:17.493Z,49.5
2019-02-26T06:29:19.999Z,50.0
2019-02-26T06:30:16.535Z,49.9
2019-02-26T06:31:19.384Z,48.9
2019-02-26T06:32:17.970Z,44.9
2019-02-26T06:33:18.696Z,43.0
2019-02-26T06:34:21.434Z,43.4
2019-02-26T06:35:20.129Z,45.2
2019-02-26T06:36:21.503Z,46.6
2019-02-26T06:37:23.374Z,47.9
2019-02-26T06:38:23.487Z,48.0
2019-02-26T06:39:24.587Z,48.5
2019-02-26T06:40:23.718Z,48.6
2019-02-26T06:41:24.426Z,47.6
2019-02-26T06:42:25.136Z,47.9
2019-02-26T06:43:25.848Z,48.6
2019-02-26T06:44:26.570Z,50.6
2019-02-26T06:45:27.279Z,50.6
2019-02-26T06:46:29.368Z,50.0
2019-02-26T06:47:30.991Z,48.6
2019-02-26T06:48:30.584Z,47.3
2019-02-26T06:49:30.212Z,48.0
2019-02-26T06:50:31.821Z,48.4
2019-02-26T06:51:31.637Z,48.5
2019-02-26T06:52:35.100Z,48.4
2019-02-26T06:53:33.067Z,48.6
2019-02-26T06:54:33.779Z,49.2
2019-02-26T06:55:34.495Z,48.9
2019-02-26T06:56:40.740Z,48.5
2019-02-26T06:57:35.929Z,48.4
2019-02-26T06:58:38.146Z,48.1
2019-02-26T06:59:37.386Z,48.6
2019-02-26T07:00:38.098Z,49.1
2019-02-26T07:01:39.704Z,50.1
2019-02-26T07:02:39.579Z,51.7
2019-02-26T07:03:40.918Z,53.9
2019-02-26T07:04:41.013Z,56.3
2019-02-26T07:05:42.386Z,58.4
2019-02-26T07:06:42.445Z,60.4
2019-02-26T07:07:43.162Z,62.2
2019-02-26T07:08:45.031Z,62.8
2019-02-26T07:09:44.851Z,63.2
2019-02-26T07:10:45.563Z,65.0
2019-02-26T07:11:46.273Z,66.0
2019-02-26T07:12:48.754Z,66.5
2019-02-26T07:13:47.803Z,69.1
2019-02-26T07:14:50.770Z,70.0
2019-02-26T07:15:49.227Z,73.4
2019-02-26T07:16:49.952Z,76.3
2019-02-26T07:17:50.670Z,78.1
2019-02-26T07:18:51.471Z,82.5
2019-02-26T07:19:53.850Z,84.5
2019-02-26T07:20:55.245Z,84.4
2019-02-26T07:21:53.602Z,85.3
2019-02-26T07:22:54.318Z,85.1
2019-02-26T07:23:56.438Z,87.7
2019-02-26T07:24:55.885Z,90.0
2019-02-26T07:25:56.603Z,91.8
2019-02-26T07:26:57.313Z,93.4
2019-02-26T07:28:00.211Z,93.1
2019-02-26T07:28:58.743Z,94.6
2019-02-26T07:29:59.461Z,95.6
2019-02-26T07:31:02.182Z,94.5
2019-02-26T07:32:00.896Z,96.2
2019-02-26T07:33:03.029Z,96.9
2019-02-26T07:34:03.184Z,97.0
2019-02-26T07:35:05.866Z,99.5
2019-02-26T07:36:04.213Z,100.0
2019-02-26T07:37:06.405Z,100.0
2019-02-26T07:38:05.284Z,100.0
2019-02-26T07:39:05.995Z,100.0
2019-02-26T07:40:08.752Z,100.0
2019-02-26T07:41:07.422Z,100.0
2019-02-26T07:42:09.181Z,100.0
2019-02-26T07:43:09.819Z,100.0
2019-02-26T07:44:15.406Z,100.0
2019-02-26T07:45:15.150Z,100.0
2019-02-26T07:46:12.651Z,100.0
2019-02-26T07:47:11.745Z,100.0
2019-02-26T07:48:16.287Z,100.0
2019-02-26T07:49:13.165Z,100.0
2019-02-26T07:50:14.588Z,100.0
2019-02-26T07:51:14.611Z,100.0
2019-02-26T07:52:15.324Z,100.0
2019-02-26T07:53:17.984Z,100.0
2019-02-26T07:54:16.754Z,100.0
2019-02-26T07:55:17.640Z,100.0
2019-02-26T07:56:18.200Z,100.0
2019-02-26T07:57:20.642Z,100.0
2019-02-26T07:58:19.630Z,100.0
2019-02-26T07:59:27.424Z,100.0
2019-02-26T08:00:21.063Z,100.0
2019-02-26T08:01:21.795Z,100.0
2019-02-26T08:02:22.514Z,100.0
2019-02-26T08:03:24.762Z,100.0
2019-02-26T08:04:23.942Z,100.0
2019-02-26T08:05:28.314Z,100.0
2019-02-26T08:06:26.807Z,100.0
2019-02-26T08:07:26.775Z,100.0
2019-02-26T08:08:26.807Z,100.0
2019-02-26T08:09:27.526Z,100.0
2019-02-26T08:10:28.247Z,100.0
2019-02-26T08:11:29.121Z,100.0
2019-02-26T08:12:30.943Z,100.0
2019-02-26T08:13:32.088Z,100.0
2019-02-26T08:14:31.281Z,100.0
2019-02-26T08:15:32.881Z,100.0
2019-02-26T08:16:32.998Z,100.0
2019-02-26T08:17:33.764Z,100.0
2019-02-26T08:18:34.487Z,100.0
2019-02-26T08:19:37.595Z,100.0
2019-02-26T08:20:37.573Z,98.7
2019-02-26T08:21:36.651Z,96.6
2019-02-26T08:22:37.640Z,96.2
2019-02-26T08:23:38.440Z,93.8
2019-02-26T08:24:39.162Z,93.0
2019-02-26T08:25:39.879Z,89.5
2019-02-26T08:26:42.871Z,88.4
2019-02-26T08:27:41.314Z,88.1
2019-02-26T08:28:43.678Z,86.8
2019-02-26T08:29:42.757Z,85.1
2019-02-26T08:30:45.241Z,84.1
2019-02-26T08:31:46.674Z,82.0
2019-02-26T08:32:48.384Z,81.3
2019-02-26T08:33:48.632Z,81.1
2019-02-26T08:34:46.395Z,81.5
2019-02-26T08:35:47.110Z,80.2
2019-02-26T08:36:47.824Z,79.3
2019-02-26T08:37:48.539Z,79.3
2019-02-26T08:38:49.357Z,77.7
2019-02-26T08:39:50.073Z,76.9
2019-02-26T08:40:50.802Z,76.0
2019-02-26T08:41:51.527Z,75.8
2019-02-26T08:42:52.244Z,75.9
2019-02-26T08:43:54.552Z,75.9
2019-02-26T08:44:55.636Z,76.0
2019-02-26T08:45:54.422Z,75.2
2019-02-26T08:46:55.141Z,74.9
2019-02-26T08:47:55.853Z,74.2
2019-02-26T08:48:56.671Z,73.8
2019-02-26T08:49:58.887Z,72.9
2019-02-26T08:51:00.779Z,72.6
2019-02-26T08:51:58.851Z,72.2
2019-02-26T08:52:59.575Z,71.0
2019-02-26T08:54:00.295Z,70.9
2019-02-26T08:55:01.076Z,70.5
2019-02-26T08:56:03.959Z,70.9
2019-02-26T08:57:02.463Z,72.0
2019-02-26T08:58:03.190Z,71.8
2019-02-26T08:59:03.911Z,71.7
2019-02-26T09:00:04.618Z,71.4
2019-02-26T09:01:05.359Z,70.9
2019-02-26T09:02:06.085Z,70.5
2019-02-26T09:03:08.836Z,69.6
2019-02-26T09:04:07.531Z,68.8
2019-02-26T09:05:09.843Z,69.0
2019-02-26T09:06:13.216Z,69.8
2019-02-26T09:07:09.695Z,69.1
2019-02-26T09:08:12.831Z,68.8
2019-02-26T09:09:11.152Z,68.6
2019-02-26T09:10:13.052Z,67.8
2019-02-26T09:11:13.558Z,67.5
2019-02-26T09:12:15.138Z,67.6
2019-02-26T09:13:16.299Z,67.7
2019-02-26T09:14:16.591Z,67.1
2019-02-26T09:15:15.843Z,66.9
2019-02-26T09:16:16.220Z,66.2
2019-02-26T09:17:20.882Z,66.1
2019-02-26T09:18:20.293Z,66.2
2019-02-26T09:19:18.384Z,66.1
2019-02-26T09:20:19.110Z,65.5
2019-02-26T09:21:21.110Z,65.6
2019-02-26T09:22:21.242Z,64.6
2019-02-26T09:23:23.530Z,64.7
2019-02-26T09:24:22.001Z,64.8
2019-02-26T09:25:25.510Z,64.1
2019-02-26T09:26:23.511Z,64.2
2019-02-26T09:27:24.827Z,63.6
2019-02-26T09:28:26.998Z,63.5
2019-02-26T09:29:25.716Z,62.5
2019-02-26T09:30:28.162Z,62.1
2019-02-26T09:31:27.285Z,62.3
2019-02-26T09:32:28.352Z,61.4
2019-02-26T09:33:32.824Z,60.5
2019-02-26T09:34:31.806Z,60.3
2019-02-26T09:35:31.316Z,59.8
2019-02-26T09:36:30.934Z,59.0
2019-02-26T09:37:31.665Z,58.4
2019-02-26T09:38:32.400Z,58.3
2019-02-26T09:39:36.005Z,58.1
2019-02-26T09:40:34.478Z,58.2
2019-02-26T09:41:35.554Z,58.0
2019-02-26T09:42:35.354Z,58.0
2019-02-26T09:43:36.204Z,58.0
2019-02-26T09:44:36.806Z,57.8
2019-02-26T09:45:37.819Z,56.4
2019-02-26T09:46:40.820Z,56.7
2019-02-26T09:47:39.432Z,56.4
2019-02-26T09:48:42.572Z,56.5
2019-02-26T09:49:40.897Z,56.0
2019-02-26T09:50:43.773Z,55.9
2019-02-26T09:51:42.847Z,54.9
2019-02-26T09:52:45.134Z,55.0
2019-02-26T09:53:44.302Z,55.1
2019-02-26T09:54:47.708Z,54.8
2019-02-26T09:55:45.747Z,54.6
2019-02-26T09:56:46.492Z,54.6
2019-02-26T09:57:47.222Z,54.7
2019-02-26T09:58:48.305Z,54.1
2019-02-26T09:59:49.628Z,54.3
2019-02-26T10:00:51.162Z,54.8
2019-02-26T10:01:50.141Z,54.0
2019-02-26T10:02:52.071Z,53.9
2019-02-26T10:03:53.613Z,55.0
2019-02-26T10:04:54.326Z,55.9
2019-02-26T10:05:55.099Z,55.5
2019-02-26T10:06:53.783Z,55.9
2019-02-26T10:07:57.147Z,56.1
2019-02-26T10:08:56.039Z,56.1
2019-02-26T10:09:55.952Z,55.6
2019-02-26T10:10:57.640Z,56.3
2019-02-26T10:11:57.455Z,55.4
2019-02-26T10:12:59.938Z,55.4
2019-02-26T10:13:58.926Z,56.2
2019-02-26T10:15:02.363Z,55.1
2019-02-26T10:16:01.974Z,53.7
2019-02-26T10:17:01.201Z,53.0
2019-02-26T10:18:04.019Z,51.5
2019-02-26T10:19:02.663Z,51.2
2019-02-26T10:20:04.998Z,52.8
2019-02-26T10:21:05.963Z,53.7
2019-02-26T10:22:07.145Z,54.7
2019-02-26T10:23:06.291Z,53.8
2019-02-26T10:24:06.409Z,53.5
2019-02-26T10:25:07.137Z,53.6
2019-02-26T10:26:10.444Z,52.6
2019-02-26T10:27:09.362Z,52.2
2019-02-26T10:28:11.712Z,53.1
2019-02-26T10:29:10.057Z,52.4
2019-02-26T10:30:13.497Z,51.8
2019-02-26T10:31:11.609Z,51.0
2019-02-26T10:32:12.345Z,51.1
2019-02-26T10:33:17.638Z,51.0
2019-02-26T10:34:15.756Z,50.4
2019-02-26T10:35:16.570Z,49.7
2019-02-26T10:36:16.476Z,50.1
2019-02-26T10:37:15.997Z,50.7
2019-02-26T10:38:16.729Z,50.4
2019-02-26T10:39:18.616Z,50.8
2019-02-26T10:40:19.539Z,50.5
2019-02-26T10:41:21.079Z,51.3
2019-02-26T10:42:19.654Z,50.7
2019-02-26T10:43:20.400Z,50.6
2019-02-26T10:44:21.179Z,51.3
2019-02-26T10:45:21.927Z,51.5
2019-02-26T10:46:22.647Z,51.1
2019-02-26T10:47:25.140Z,52.5
2019-02-26T10:48:24.988Z,52.2
2019-02-26T10:49:24.865Z,51.3
2019-02-26T10:50:31.091Z,52.4
2019-02-26T10:51:27.201Z,53.4
2019-02-26T10:52:28.654Z,53.8
2019-02-26T10:53:28.241Z,54.1
2019-02-26T10:54:31.504Z,54.6
2019-02-26T10:55:35.210Z,54.1
2019-02-26T10:56:38.502Z,53.6
2019-02-26T10:57:34.267Z,52.7
2019-02-26T10:58:33.122Z,51.9
2019-02-26T10:59:33.857Z,51.1
2019-02-26T11:00:37.630Z,51.4
2019-02-26T11:01:35.552Z,51.0
2019-02-26T11:02:36.098Z,51.4
2019-02-26T11:03:40.862Z,49.8
2019-02-26T11:04:41.132Z,49.9
2019-02-26T11:05:39.678Z,49.3
2019-02-26T11:06:41.893Z,49.7
2019-02-26T11:07:40.181Z,50.4
2019-02-26T11:08:40.793Z,50.4
2019-02-26T11:09:41.525Z,49.4
2019-02-26T11:10:44.492Z,48.7
2019-02-26T11:11:42.985Z,48.1
2019-02-26T11:12:45.435Z,47.7
2019-02-26T11:13:48.213Z,47.6
2019-02-26T11:14:45.191Z,47.2
2019-02-26T11:15:48.239Z,47.6
2019-02-26T11:16:46.660Z,47.5
2019-02-26T11:17:47.939Z,48.6
2019-02-26T11:18:48.298Z,48.3
2019-02-26T11:19:49.029Z,48.9
2019-02-26T11:20:50.312Z,48.2
2019-02-26T11:21:55.400Z,48.5
2019-02-26T11:22:52.053Z,49.2
2019-02-26T11:23:52.383Z,49.4
2019-02-26T11:24:56.000Z,48.6
2019-02-26T11:25:54.101Z,49.5
2019-02-26T11:26:54.839Z,48.6
2019-02-26T11:27:55.654Z,49.1
2019-02-26T11:28:56.385Z,48.4
2019-02-26T11:29:59.237Z,49.4
2019-02-26T11:30:57.844Z,48.0
2019-02-26T11:31:58.574Z,47.6
2019-02-26T11:33:02.522Z,47.5
2019-02-26T11:34:03.326Z,46.1
2019-02-26T11:35:02.354Z,46.1
2019-02-26T11:36:03.036Z,46.6
2019-02-26T11:37:03.302Z,47.6
2019-02-26T11:38:03.113Z,47.2
2019-02-26T11:39:05.030Z,45.9
2019-02-26T11:40:05.533Z,46.0
2019-02-26T11:41:05.352Z,46.4
2019-02-26T11:42:06.084Z,46.4
2019-02-26T11:43:11.618Z,46.9
2019-02-26T11:44:12.304Z,47.6
2019-02-26T11:45:09.782Z,48.4
2019-02-26T11:46:09.008Z,48.0
2019-02-26T11:47:11.147Z,48.1
2019-02-26T11:48:10.480Z,47.4
2019-02-26T11:49:11.975Z,47.6
2019-02-26T11:50:12.184Z,47.5
2019-02-26T11:51:16.858Z,48.4
2019-02-26T11:52:13.645Z,46.9
2019-02-26T11:53:14.396Z,44.8
2019-02-26T11:54:17.504Z,44.8
2019-02-26T11:55:15.848Z,45.8
2019-02-26T11:56:17.718Z,45.3
2019-02-26T11:57:17.786Z,44.7
2019-02-26T11:58:19.891Z,44.3
2019-02-26T11:59:19.512Z,43.8
2019-02-26T12:00:25.356Z,42.0
2019-02-26T12:01:20.294Z,40.9
2019-02-26T12:02:26.636Z,39.9
2019-02-26T12:03:24.904Z,39.1
2019-02-26T12:04:22.489Z,37.9
2019-02-26T12:05:29.592Z,38.0
2019-02-26T12:06:24.007Z,39.1
2019-02-26T12:07:25.638Z,39.0
2019-02-26T12:08:25.943Z,39.4
2019-02-26T12:09:26.219Z,38.9
2019-02-26T12:10:29.533Z,38.2
2019-02-26T12:11:27.692Z,37.5
2019-02-26T12:12:30.685Z,37.5
2019-02-26T12:13:29.160Z,37.1
2019-02-26T12:14:29.896Z,37.4
2019-02-26T12:15:32.815Z,36.9
2019-02-26T12:16:31.358Z,36.6
2019-02-26T12:17:32.130Z,34.2
2019-02-26T12:18:34.258Z,32.6
2019-02-26T12:19:34.487Z,31.8
2019-02-26T12:20:35.581Z,30.9
2019-02-26T12:21:36.927Z,30.6
2019-02-26T12:22:35.791Z,28.1
2019-02-26T12:23:37.433Z,28.3
2019-02-26T12:24:37.258Z,29.3
2019-02-26T12:25:37.996Z,30.1
2019-02-26T12:26:38.734Z,30.9
2019-02-26T12:27:41.325Z,31.5
2019-02-26T12:28:40.369Z,32.6
2019-02-26T12:29:43.632Z,31.0
2019-02-26T12:30:43.999Z,30.3
2019-02-26T12:31:42.429Z,30.4
2019-02-26T12:32:46.805Z,31.5
2019-02-26T12:33:43.940Z,32.9
2019-02-26T12:34:47.648Z,33.9
2019-02-26T12:35:45.400Z,34.6
2019-02-26T12:36:48.157Z,35.3
2019-02-26T12:37:50.077Z,35.5
2019-02-26T12:38:50.116Z,34.5
2019-02-26T12:39:49.947Z,34.6
2019-02-26T12:40:50.752Z,33.4
2019-02-26T12:41:50.140Z,33.7
2019-02-26T12:42:50.884Z,34.2
2019-02-26T12:43:51.609Z,33.4
2019-02-26T12:44:52.336Z,32.2
2019-02-26T12:45:56.087Z,32.2
2019-02-26T12:46:56.697Z,31.4
2019-02-26T12:47:55.199Z,30.2
2019-02-26T12:48:55.282Z,30.4
2019-02-26T12:49:56.741Z,30.5
2019-02-26T12:50:58.485Z,30.5
2019-02-26T12:51:59.662Z,31.0
2019-02-26T12:52:58.221Z,30.2
2019-02-26T12:54:00.543Z,30.5
2019-02-26T12:55:00.693Z,32.3
2019-02-26T12:56:02.507Z,32.7
2019-02-26T12:57:04.272Z,33.1
2019-02-26T12:58:02.266Z,32.2
2019-02-26T12:59:03.005Z,31.1
2019-02-26T13:00:03.748Z,30.2
2019-02-26T13:01:04.488Z,31.2
2019-02-26T13:02:08.671Z,30.3
2019-02-26T13:03:08.398Z,29.8
2019-02-26T13:04:09.354Z,30.0
2019-02-26T13:05:10.114Z,30.8
2019-02-26T13:06:10.003Z,31.5
2019-02-26T13:07:09.463Z,31.4
2019-02-26T13:08:12.470Z,30.3
2019-02-26T13:09:10.368Z,30.1
2019-02-26T13:10:11.119Z,29.1
2019-02-26T13:11:13.978Z,29.0
2019-02-26T13:12:16.860Z,27.9
2019-02-26T13:13:13.326Z,26.5
2019-02-26T13:14:14.067Z,24.7
2019-02-26T13:15:19.064Z,27.0
2019-02-26T13:16:15.531Z,27.9
2019-02-26T13:17:17.352Z,29.5
2019-02-26T13:18:17.011Z,29.8
2019-02-26T13:19:21.849Z,29.7
2019-02-26T13:20:18.482Z,29.2
2019-02-26T13:21:19.467Z,28.7
2019-02-26T13:22:20.391Z,27.7
2019-02-26T13:23:21.857Z,27.7
2019-02-26T13:24:26.122Z,27.9
2019-02-26T13:25:26.408Z,28.0
2019-02-26T13:26:23.164Z,28.1
2019-02-26T13:27:23.893Z,28.9